createdAt,value
2018-11-12T00:00:34.005Z,3.70
2018-11-12T00:03:02.792Z,3.68
2018-11-12T00:05:31.570Z,3.65
2018-11-12T00:08:00.985Z,3.66
2018-11-12T00:10:29.966Z,3.63
2018-11-12T00:12:58.869Z,3.60
2018-11-12T00:15:28.065Z,3.65
2018-11-12T00:17:56.945Z,3.61
2018-11-12T00:20:25.804Z,3.58
2018-11-12T00:22:54.857Z,3.55
2018-11-12T00:25:23.986Z,3.72
2018-11-12T00:27:52.707Z,3.64
2018-11-12T00:30:21.707Z,3.52
2018-11-12T00:32:50.895Z,3.38
2018-11-12T00:35:19.744Z,3.32
2018-11-12T00:37:50.173Z,3.39
2018-11-12T00:40:19.110Z,3.47
2018-11-12T00:42:48.222Z,3.57
2018-11-12T00:45:17.545Z,3.75
2018-11-12T00:47:46.514Z,3.87
2018-11-12T00:50:15.803Z,3.78
2018-11-12T00:52:45.044Z,3.48
2018-11-12T00:55:14.731Z,3.41
2018-11-12T00:57:43.602Z,3.35
2018-11-12T01:00:14.658Z,3.40
2018-11-12T01:02:47.544Z,3.32
2018-11-12T01:05:17.261Z,3.15
2018-11-12T01:07:46.800Z,3.04
2018-11-12T01:10:16.931Z,3.08
2018-11-12T01:12:46.122Z,3.20
2018-11-12T01:15:16.296Z,3.06
2018-11-12T01:17:45.282Z,2.97
2018-11-12T01:20:15.008Z,2.94
2018-11-12T01:22:44.302Z,2.94
2018-11-12T01:25:14.130Z,3.01
2018-11-12T01:27:43.464Z,3.03
2018-11-12T01:30:14.503Z,3.04
2018-11-12T01:32:43.753Z,2.94
2018-11-12T01:35:13.699Z,3.09
2018-11-12T01:37:42.509Z,3.38
2018-11-12T01:40:12.511Z,3.42
2018-11-12T01:42:41.887Z,3.36
2018-11-12T01:45:13.093Z,3.00
2018-11-12T01:47:42.697Z,2.84
2018-11-12T01:50:12.595Z,2.88
2018-11-12T01:52:42.567Z,2.99
2018-11-12T01:55:12.698Z,2.90
2018-11-12T01:57:41.899Z,2.91
2018-11-12T02:00:13.667Z,2.90
2018-11-12T02:02:43.350Z,2.99
2018-11-12T02:05:12.230Z,3.08
2018-11-12T02:07:41.014Z,3.05
2018-11-12T02:10:12.092Z,2.91
2018-11-12T02:12:41.418Z,2.95
2018-11-12T02:15:12.746Z,3.12
2018-11-12T02:17:41.902Z,3.23
2018-11-12T02:20:12.401Z,3.16
2018-11-12T02:22:42.112Z,3.29
2018-11-12T02:25:11.714Z,3.31
2018-11-12T02:27:40.575Z,3.32
2018-11-12T02:30:11.898Z,3.23
2018-11-12T02:32:40.766Z,3.45
2018-11-12T02:35:10.009Z,3.35
2018-11-12T02:37:39.603Z,2.90
2018-11-12T02:40:10.635Z,2.66
2018-11-12T02:42:39.798Z,2.60
2018-11-12T02:45:10.166Z,2.58
2018-11-12T02:47:39.209Z,2.57
2018-11-12T02:50:09.591Z,2.47
2018-11-12T02:52:38.644Z,2.45
2018-11-12T02:55:09.339Z,2.42
2018-11-12T02:57:38.083Z,2.57
2018-11-12T03:00:11.153Z,2.57
2018-11-12T03:02:40.505Z,2.56
2018-11-12T03:05:10.313Z,2.64
2018-11-12T03:07:39.837Z,2.74
2018-11-12T03:10:11.158Z,2.81
2018-11-12T03:12:39.802Z,2.92
2018-11-12T03:15:10.137Z,2.79
2018-11-12T03:17:39.502Z,2.68
2018-11-12T03:20:10.632Z,2.64
2018-11-12T03:22:39.953Z,2.50
2018-11-12T03:25:10.494Z,2.47
2018-11-12T03:27:39.329Z,2.45
2018-11-12T03:30:09.331Z,2.37
2018-11-12T03:32:38.172Z,2.34
2018-11-12T03:35:07.885Z,2.30
2018-11-12T03:37:36.912Z,2.25
2018-11-12T03:40:07.456Z,2.30
2018-11-12T03:42:36.241Z,2.55
2018-11-12T03:45:07.310Z,2.45
2018-11-12T03:47:36.550Z,2.31
2018-11-12T03:50:06.872Z,2.30
2018-11-12T03:52:35.585Z,2.41
2018-11-12T03:55:04.282Z,2.47
2018-11-12T03:57:33.182Z,2.41
2018-11-12T04:00:02.030Z,2.40
2018-11-12T04:02:31.163Z,2.37
2018-11-12T04:05:00.108Z,2.32
2018-11-12T04:07:29.055Z,2.28
2018-11-12T04:09:58.142Z,2.26
2018-11-12T04:12:27.270Z,2.24
2018-11-12T04:14:56.017Z,2.19
2018-11-12T04:17:24.738Z,2.23
2018-11-12T04:19:53.510Z,2.35
2018-11-12T04:22:22.800Z,2.53
2018-11-12T04:24:51.495Z,2.66
2018-11-12T04:27:20.216Z,2.77
2018-11-12T04:29:48.961Z,2.81
2018-11-12T04:32:17.959Z,2.62
2018-11-12T04:34:47.012Z,2.41
2018-11-12T04:37:15.941Z,2.49
2018-11-12T04:39:45.202Z,2.46
2018-11-12T04:42:14.334Z,2.45
2018-11-12T04:44:43.296Z,2.38
2018-11-12T04:47:12.149Z,2.32
2018-11-12T04:49:41.023Z,2.63
2018-11-12T04:52:10.221Z,2.80
2018-11-12T04:54:39.083Z,2.86
2018-11-12T04:57:07.854Z,3.00
2018-11-12T04:59:36.852Z,3.02
2018-11-12T05:02:06.240Z,2.95
2018-11-12T05:04:35.224Z,2.54
2018-11-12T05:07:04.137Z,2.50
2018-11-12T05:09:33.065Z,2.51
2018-11-12T05:12:02.305Z,2.43
2018-11-12T05:14:31.219Z,2.42
2018-11-12T05:17:00.056Z,2.49
2018-11-12T05:19:29.361Z,2.79
2018-11-12T05:21:58.651Z,2.97
2018-11-12T05:24:27.750Z,2.96
2018-11-12T05:26:56.816Z,2.89
2018-11-12T05:29:25.532Z,2.86
2018-11-12T05:31:54.214Z,2.98
2018-11-12T05:34:23.176Z,3.04
2018-11-12T05:36:52.078Z,3.08
2018-11-12T05:39:20.915Z,3.15
2018-11-12T05:41:50.311Z,3.19
2018-11-12T05:44:19.461Z,3.24
2018-11-12T05:46:48.700Z,3.28
2018-11-12T05:49:17.870Z,3.33
2018-11-12T05:51:47.159Z,3.52
2018-11-12T05:54:15.882Z,3.57
2018-11-12T05:56:44.986Z,3.58
2018-11-12T05:59:13.759Z,3.56
2018-11-12T06:01:42.474Z,3.55
2018-11-12T06:04:11.446Z,3.61
2018-11-12T06:06:40.743Z,3.63
2018-11-12T06:09:10.664Z,3.54
2018-11-12T06:11:40.071Z,3.54
2018-11-12T06:14:09.438Z,3.70
2018-11-12T06:16:38.457Z,3.80
2018-11-12T06:19:07.495Z,3.97
2018-11-12T06:21:36.548Z,4.10
2018-11-12T06:24:05.838Z,4.17
2018-11-12T06:26:34.626Z,4.19
2018-11-12T06:29:03.348Z,4.10
2018-11-12T06:31:32.149Z,4.29
2018-11-12T06:34:01.639Z,4.23
2018-11-12T06:36:30.688Z,4.14
2018-11-12T06:38:59.514Z,4.26
2018-11-12T06:41:28.238Z,4.36
2018-11-12T06:43:57.087Z,4.47
2018-11-12T06:46:26.089Z,4.56
2018-11-12T06:48:54.926Z,4.52
2018-11-12T06:51:24.033Z,4.73
2018-11-12T06:53:52.680Z,4.90
2018-11-12T06:56:21.484Z,5.10
2018-11-12T06:58:50.248Z,4.99
2018-11-12T07:01:18.907Z,5.05
2018-11-12T07:03:47.867Z,5.21
2018-11-12T07:06:17.275Z,5.52
2018-11-12T07:08:46.201Z,5.71
2018-11-12T07:11:15.786Z,5.82
2018-11-12T07:13:44.514Z,6.21
2018-11-12T07:16:13.793Z,6.27
2018-11-12T07:18:42.999Z,6.35
2018-11-12T07:21:12.314Z,6.65
2018-11-12T07:23:41.511Z,6.58
2018-11-12T07:26:10.153Z,6.70
2018-11-12T07:28:38.902Z,6.98
2018-11-12T07:31:07.715Z,7.06
2018-11-12T07:33:36.789Z,7.11
2018-11-12T07:36:05.995Z,7.24
2018-11-12T07:38:35.157Z,7.40
2018-11-12T07:41:03.898Z,7.43
2018-11-12T07:43:32.750Z,7.45
2018-11-12T07:46:01.897Z,7.60
2018-11-12T07:48:30.743Z,7.83
2018-11-12T07:51:00.006Z,7.97
2018-11-12T07:53:30.023Z,8.21
2018-11-12T07:55:58.799Z,8.15
2018-11-12T07:58:27.847Z,8.38
2018-11-12T08:00:56.739Z,8.72
2018-11-12T08:03:25.543Z,8.69
2018-11-12T08:05:54.654Z,8.90
2018-11-12T08:08:23.485Z,8.98
2018-11-12T08:10:52.602Z,9.03
2018-11-12T08:13:21.547Z,9.17
2018-11-12T08:15:50.611Z,9.19
2018-11-12T08:18:20.030Z,9.45
2018-11-12T08:20:48.881Z,9.72
2018-11-12T08:23:18.212Z,9.81
2018-11-12T08:25:47.010Z,9.86
2018-11-12T08:28:15.929Z,10.03
2018-11-12T08:30:44.944Z,10.19
2018-11-12T08:33:13.839Z,10.22
2018-11-12T08:35:42.645Z,10.20
2018-11-12T08:38:12.798Z,10.21
2018-11-12T08:40:42.459Z,10.48
2018-11-12T08:43:11.561Z,10.53
2018-11-12T08:45:40.689Z,10.40
2018-11-12T08:48:10.759Z,10.82
2018-11-12T08:50:40.047Z,11.19
2018-11-12T08:53:09.196Z,11.76
2018-11-12T08:55:38.242Z,12.19
2018-11-12T08:58:07.305Z,12.44
2018-11-12T09:00:36.168Z,13.22
2018-11-12T09:03:05.344Z,13.45
2018-11-12T09:05:34.537Z,13.83
2018-11-12T09:08:03.834Z,14.33
2018-11-12T09:10:34.332Z,14.12
2018-11-12T09:13:04.248Z,14.63
2018-11-12T09:15:36.274Z,15.26
2018-11-12T09:18:08.532Z,15.61
2018-11-12T09:20:37.521Z,15.62
2018-11-12T09:23:06.805Z,16.06
2018-11-12T09:25:35.631Z,16.36
2018-11-12T09:28:04.453Z,16.41
2018-11-12T09:30:33.259Z,16.36
2018-11-12T09:33:02.599Z,16.51
2018-11-12T09:35:32.555Z,16.65
2018-11-12T09:38:02.736Z,16.86
2018-11-12T09:40:36.988Z,17.13
2018-11-12T09:43:06.327Z,17.14
2018-11-12T09:45:35.447Z,17.62
2018-11-12T09:48:04.793Z,17.92
2018-11-12T09:50:33.883Z,18.00
2018-11-12T09:53:03.457Z,17.78
2018-11-12T09:55:33.746Z,18.22
2018-11-12T09:58:03.899Z,18.60
2018-11-12T10:00:32.765Z,18.81
2018-11-12T10:03:02.486Z,18.25
2018-11-12T10:05:32.687Z,18.37
2018-11-12T10:08:05.193Z,18.58
2018-11-12T10:10:43.005Z,18.79
2018-11-12T10:13:13.587Z,18.92
2018-11-12T10:15:43.519Z,19.31
2018-11-12T10:20:39.325Z,19.86
2018-11-12T10:23:08.635Z,20.16
2018-11-12T10:25:37.725Z,18.87
2018-11-12T10:28:07.150Z,19.29
2018-11-12T10:30:35.948Z,20.06
2018-11-12T10:33:05.244Z,20.28
2018-11-12T10:35:34.695Z,20.71
2018-11-12T10:38:03.799Z,20.56
2018-11-12T10:40:32.722Z,20.62
2018-11-12T10:43:01.800Z,20.86
2018-11-12T10:45:30.991Z,21.08
2018-11-12T10:47:59.969Z,21.19
2018-11-12T10:50:29.162Z,21.58
2018-11-12T10:52:58.453Z,21.41
2018-11-12T10:55:27.687Z,21.00
2018-11-12T10:57:56.523Z,21.21
2018-11-12T11:00:32.438Z,21.00
2018-11-12T11:03:07.556Z,20.62
2018-11-12T11:05:37.794Z,20.78
2018-11-12T11:08:06.809Z,20.54
2018-11-12T11:10:36.130Z,20.56
2018-11-12T11:13:05.638Z,21.02
2018-11-12T11:15:35.186Z,21.08
2018-11-12T11:18:04.381Z,21.22
2018-11-12T11:20:33.212Z,21.42
2018-11-12T11:23:02.490Z,21.63
2018-11-12T11:25:31.522Z,21.19
2018-11-12T11:28:00.276Z,21.73
2018-11-12T11:30:28.961Z,21.78
2018-11-12T11:32:58.358Z,20.50
2018-11-12T11:35:27.103Z,20.29
2018-11-12T11:37:56.176Z,20.54
2018-11-12T11:40:27.039Z,21.23
2018-11-12T11:42:56.250Z,21.75
2018-11-12T11:45:25.140Z,21.72
2018-11-12T11:47:54.267Z,21.84
2018-11-12T11:50:25.251Z,21.77
2018-11-12T11:52:54.691Z,22.43
2018-11-12T11:55:24.481Z,22.66
2018-11-12T11:57:53.557Z,22.82
2018-11-12T12:00:26.534Z,22.98
2018-11-12T12:02:56.366Z,22.86
2018-11-12T12:05:26.134Z,23.19
2018-11-12T12:07:55.708Z,23.06
2018-11-12T12:10:24.706Z,22.48
2018-11-12T12:12:54.047Z,21.86
2018-11-12T12:15:23.624Z,22.35
2018-11-12T12:17:52.456Z,22.73
2018-11-12T12:20:23.109Z,22.75
2018-11-12T12:22:52.277Z,22.91
2018-11-12T12:25:21.067Z,23.03
2018-11-12T12:27:50.165Z,23.23
2018-11-12T12:30:25.105Z,23.36
2018-11-12T12:32:54.943Z,23.19
2018-11-12T12:35:23.606Z,23.42
2018-11-12T12:37:52.417Z,23.63
2018-11-12T12:40:22.582Z,23.55
2018-11-12T12:42:51.467Z,23.65
2018-11-12T12:45:22.177Z,23.07
2018-11-12T12:47:51.382Z,22.77
2018-11-12T12:50:20.598Z,23.68
2018-11-12T12:52:49.871Z,23.69
2018-11-12T12:55:18.902Z,23.98
2018-11-12T12:57:48.455Z,24.27
2018-11-12T13:00:21.118Z,24.57
2018-11-12T13:02:50.985Z,25.02
2018-11-12T13:05:20.172Z,24.66
2018-11-12T13:07:49.662Z,24.65
2018-11-12T13:10:19.813Z,25.05
2018-11-12T13:12:48.809Z,25.35
2018-11-12T13:15:19.012Z,25.06
2018-11-12T13:17:48.482Z,25.10
2018-11-12T13:20:18.555Z,24.77
2018-11-12T13:22:48.221Z,24.98
2018-11-12T13:25:17.080Z,25.09
2018-11-12T13:27:46.385Z,25.23
2018-11-12T13:30:17.111Z,24.98
2018-11-12T13:32:46.843Z,25.00
2018-11-12T13:35:17.422Z,25.53
2018-11-12T13:37:46.326Z,25.60
2018-11-12T13:40:19.636Z,25.21
2018-11-12T13:42:50.194Z,25.75
2018-11-12T13:45:19.099Z,25.55
2018-11-12T13:47:48.282Z,25.63
2018-11-12T13:50:18.802Z,25.45
2018-11-12T13:52:48.831Z,25.42
2018-11-12T13:55:18.802Z,25.16
2018-11-12T13:57:47.570Z,25.50
2018-11-12T14:00:17.952Z,25.41
2018-11-12T14:02:47.632Z,25.10
2018-11-12T14:05:18.060Z,25.03
2018-11-12T14:07:47.466Z,25.02
2018-11-12T14:10:18.026Z,25.09
2018-11-12T14:12:47.489Z,24.92
2018-11-12T14:17:45.489Z,24.46
2018-11-12T14:20:14.807Z,24.04
2018-11-12T14:22:43.675Z,23.95
2018-11-12T14:25:14.275Z,21.88
2018-11-12T14:27:43.170Z,21.56
2018-11-12T14:30:13.978Z,20.65
2018-11-12T14:32:43.098Z,20.31
2018-11-12T14:35:12.632Z,20.57
2018-11-12T14:37:42.915Z,19.45
2018-11-12T14:40:12.974Z,18.96
2018-11-12T14:42:42.181Z,18.79
2018-11-12T14:45:13.448Z,17.90
2018-11-12T14:47:42.722Z,17.88
2018-11-12T14:50:11.838Z,17.63
2018-11-12T14:52:41.304Z,16.78
2018-11-12T14:55:11.863Z,16.10
2018-11-12T14:57:40.654Z,15.31
2018-11-12T15:00:21.485Z,14.93
2018-11-12T15:02:50.718Z,14.59
2018-11-12T15:05:21.359Z,14.20
2018-11-12T15:07:50.040Z,13.83
2018-11-12T15:10:19.120Z,13.59
2018-11-12T15:12:49.337Z,13.15
2018-11-12T15:15:18.488Z,12.93
2018-11-12T15:17:47.638Z,12.93
2018-11-12T15:20:18.510Z,12.78
2018-11-12T15:22:48.025Z,12.57
2018-11-12T15:25:19.631Z,12.27
2018-11-12T15:27:48.306Z,12.46
2018-11-12T15:30:18.273Z,11.99
2018-11-12T15:32:49.050Z,11.77
2018-11-12T15:35:17.780Z,11.43
2018-11-12T15:37:47.664Z,11.25
2018-11-12T15:40:16.797Z,11.22
2018-11-12T15:42:45.697Z,10.91
2018-11-12T15:45:18.141Z,10.76
2018-11-12T15:47:47.897Z,10.61
2018-11-12T15:50:24.318Z,10.48
2018-11-12T15:52:52.991Z,10.39
2018-11-12T15:55:21.794Z,10.25
2018-11-12T15:57:50.987Z,10.19
2018-11-12T16:00:19.609Z,10.05
2018-11-12T16:02:48.544Z,9.94
2018-11-12T16:05:17.817Z,10.00
2018-11-12T16:07:46.967Z,9.87
2018-11-12T16:10:17.930Z,9.79
2018-11-12T16:12:46.982Z,9.68
2018-11-12T16:15:17.671Z,9.64
2018-11-12T16:17:46.499Z,9.53
2018-11-12T16:20:21.966Z,9.35
2018-11-12T16:22:51.403Z,9.30
2018-11-12T16:25:20.451Z,9.29
2018-11-12T16:27:49.926Z,7.08
2018-11-12T16:30:18.701Z,9.02
2018-11-12T16:32:48.534Z,9.02
2018-11-12T16:35:19.300Z,9.00
2018-11-12T16:37:49.599Z,9.05
2018-11-12T16:40:18.640Z,9.10
2018-11-12T16:42:48.746Z,8.87
2018-11-12T16:45:18.093Z,8.81
2018-11-12T16:47:47.179Z,8.87
2018-11-12T16:50:16.635Z,8.59
2018-11-12T16:52:45.719Z,8.57
2018-11-12T16:55:17.320Z,8.67
2018-11-12T16:57:46.431Z,8.40
2018-11-12T17:00:16.833Z,8.47
2018-11-12T17:02:46.248Z,8.19
2018-11-12T17:05:17.622Z,8.18
2018-11-12T17:07:47.173Z,8.22
2018-11-12T17:10:18.191Z,8.18
2018-11-12T17:12:48.383Z,8.17
2018-11-12T17:15:17.478Z,8.13
2018-11-12T17:17:46.942Z,8.13
2018-11-12T17:20:17.407Z,8.25
2018-11-12T17:22:46.239Z,8.17
2018-11-12T17:25:15.723Z,8.28
2018-11-12T17:27:45.048Z,8.24
2018-11-12T17:30:16.256Z,8.12
2018-11-12T17:32:46.656Z,8.05
2018-11-12T17:35:16.804Z,8.08
2018-11-12T17:37:45.696Z,7.93
2018-11-12T17:40:18.385Z,7.72
2018-11-12T17:42:48.191Z,7.69
2018-11-12T17:45:18.207Z,7.72
2018-11-12T17:47:48.455Z,7.62
2018-11-12T17:50:17.410Z,7.54
2018-11-12T17:52:46.192Z,7.52
2018-11-12T17:55:15.302Z,7.36
2018-11-12T17:57:43.888Z,7.33
2018-11-12T18:00:16.687Z,7.26
2018-11-12T18:02:45.771Z,7.25
2018-11-12T18:05:14.641Z,7.25
2018-11-12T18:07:44.553Z,7.23
2018-11-12T18:10:14.340Z,7.30
2018-11-12T18:12:43.271Z,7.30
2018-11-12T18:15:14.856Z,7.19
2018-11-12T18:17:44.292Z,7.15
2018-11-12T18:20:16.514Z,7.16
2018-11-12T18:22:45.219Z,7.07
2018-11-12T18:25:14.393Z,7.13
2018-11-12T18:27:43.149Z,7.29
2018-11-12T18:30:27.618Z,7.35
2018-11-12T18:32:57.490Z,7.17
2018-11-12T18:35:26.334Z,7.09
2018-11-12T18:37:55.616Z,7.01
2018-11-12T18:40:25.774Z,6.83
2018-11-12T18:42:54.861Z,6.75
2018-11-12T18:45:24.876Z,6.70
2018-11-12T18:47:53.681Z,6.60
2018-11-12T18:50:24.454Z,6.64
2018-11-12T18:52:53.196Z,6.59
2018-11-12T18:55:21.874Z,6.68
2018-11-12T18:57:51.067Z,6.68
2018-11-12T19:00:21.317Z,6.67
2018-11-12T19:02:50.689Z,6.67
2018-11-12T19:05:21.085Z,6.62
2018-11-12T19:07:51.663Z,6.47
2018-11-12T19:10:22.595Z,6.41
2018-11-12T19:12:52.145Z,6.38
2018-11-12T19:15:22.864Z,6.40
2018-11-12T19:17:56.454Z,6.43
2018-11-12T19:20:25.792Z,6.14
2018-11-12T19:22:54.805Z,5.97
2018-11-12T19:25:23.569Z,5.93
2018-11-12T19:27:52.767Z,5.88
2018-11-12T19:30:23.209Z,5.86
2018-11-12T19:32:52.107Z,5.99
2018-11-12T19:35:22.361Z,5.96
2018-11-12T19:37:51.550Z,5.91
2018-11-12T19:40:21.779Z,5.97
2018-11-12T19:42:51.750Z,5.84
2018-11-12T19:45:20.997Z,5.79
2018-11-12T19:47:50.810Z,5.82
2018-11-12T19:50:22.282Z,5.81
2018-11-12T19:52:52.656Z,5.82
2018-11-12T19:55:21.399Z,5.89
2018-11-12T19:57:50.770Z,5.71
2018-11-12T20:00:21.883Z,5.81
2018-11-12T20:02:51.793Z,5.75
2018-11-12T20:05:20.729Z,5.66
2018-11-12T20:07:49.868Z,5.82
2018-11-12T20:10:20.206Z,5.79
2018-11-12T20:12:48.951Z,5.68
2018-11-12T20:15:19.642Z,5.81
2018-11-12T20:17:49.142Z,5.97
2018-11-12T20:20:20.482Z,6.02
2018-11-12T20:22:49.997Z,5.99
2018-11-12T20:25:19.370Z,5.74
2018-11-12T20:27:48.809Z,5.50
2018-11-12T20:30:21.775Z,5.37
2018-11-12T20:32:50.935Z,5.38
2018-11-12T20:35:19.929Z,4.83
2018-11-12T20:37:49.470Z,5.30
2018-11-12T20:40:18.429Z,5.39
2018-11-12T20:42:47.935Z,5.39
2018-11-12T20:45:17.907Z,5.23
2018-11-12T20:47:48.095Z,5.25
2018-11-12T20:50:17.538Z,5.20
2018-11-12T20:52:46.567Z,5.23
2018-11-12T20:55:16.189Z,5.28
2018-11-12T20:57:45.176Z,5.31
2018-11-12T21:00:15.969Z,5.36
2018-11-12T21:02:46.525Z,5.29
2018-11-12T21:05:16.049Z,5.17
2018-11-12T21:07:44.760Z,5.04
2018-11-12T21:10:15.589Z,4.96
2018-11-12T21:12:44.696Z,4.93
2018-11-12T21:15:14.814Z,5.01
2018-11-12T21:17:44.095Z,4.96
2018-11-12T21:20:20.986Z,4.93
2018-11-12T21:22:50.161Z,4.87
2018-11-12T21:25:20.121Z,4.78
2018-11-12T21:27:48.998Z,4.85
2018-11-12T21:30:20.571Z,4.82
2018-11-12T21:32:49.948Z,4.81
2018-11-12T21:35:18.670Z,4.75
2018-11-12T21:37:48.081Z,4.70
2018-11-12T21:40:18.385Z,4.59
2018-11-12T21:42:47.203Z,4.64
2018-11-12T21:45:17.610Z,4.66
2018-11-12T21:47:46.985Z,4.67
2018-11-12T21:50:17.281Z,4.63
2018-11-12T21:52:45.884Z,4.61
2018-11-12T21:55:15.053Z,4.58
2018-11-12T21:57:44.179Z,4.59
2018-11-12T22:00:16.331Z,4.70
2018-11-12T22:02:46.512Z,4.66
2018-11-12T22:05:15.621Z,4.51
2018-11-12T22:07:44.942Z,4.48
2018-11-12T22:10:14.661Z,4.57
2018-11-12T22:12:45.894Z,4.64
2018-11-12T22:15:14.998Z,4.46
2018-11-12T22:17:43.798Z,4.37
2018-11-12T22:20:14.243Z,4.37
2018-11-12T22:22:43.434Z,4.35
2018-11-12T22:25:13.590Z,4.35
2018-11-12T22:27:43.160Z,4.20
2018-11-12T22:30:15.060Z,4.13
2018-11-12T22:32:45.230Z,4.12
2018-11-12T22:35:13.954Z,4.11
2018-11-12T22:37:43.326Z,4.14
2018-11-12T22:40:13.081Z,4.20
2018-11-12T22:42:42.784Z,4.18
2018-11-12T22:45:15.354Z,4.08
2018-11-12T22:47:44.980Z,3.95
2018-11-12T22:50:13.840Z,4.00
2018-11-12T22:52:43.580Z,4.19
2018-11-12T22:55:13.460Z,4.03
2018-11-12T22:57:42.305Z,4.07
2018-11-12T23:00:18.630Z,3.98
2018-11-12T23:02:47.862Z,4.00
2018-11-12T23:05:17.167Z,4.00
2018-11-12T23:07:47.246Z,4.00
2018-11-12T23:10:16.753Z,3.96
2018-11-12T23:12:45.745Z,3.94
2018-11-12T23:15:15.081Z,3.92
2018-11-12T23:17:44.549Z,3.88
2018-11-12T23:20:16.862Z,3.87
2018-11-12T23:22:46.367Z,3.93
2018-11-12T23:25:15.090Z,3.98
2018-11-12T23:27:44.940Z,3.92
2018-11-12T23:30:15.262Z,3.93
2018-11-12T23:32:44.313Z,3.89
2018-11-12T23:35:14.252Z,3.81
2018-11-12T23:37:43.974Z,3.86
2018-11-12T23:40:13.167Z,3.87
2018-11-12T23:42:42.152Z,3.92
2018-11-12T23:45:11.370Z,3.81
2018-11-12T23:47:40.357Z,3.82
2018-11-12T23:50:13.630Z,3.85
2018-11-12T23:52:42.647Z,3.81
2018-11-12T23:55:11.545Z,3.73
2018-11-12T23:57:40.323Z,3.70
